Time;durP1;ratioP1;P1;durP2;ratioP2;P2;SDS_P1;SDS_P2;PMS_P1;PMS_P2;Temp;Humidity;BMP_temperature;BMP_pressure;BME280_temperature;BME280_humidity;BME280_pressure;Samples;Min_cycle;Max_cycle;Signal;HPM_P1;HPM_P2
2022/05/06 00:00:12;;;;;;;4.85;1.67;;;;;;;9.30;93.28;101511.66;5223440;28;20036;-78
2022/05/06 00:02:42;;;;;;;3.97;1.52;;;;;;;9.02;95.82;101512.94;5219304;28;20427;-78
2022/05/06 00:05:13;;;;;;;4.35;1.50;;;;;;;9.05;94.70;101512.88;5219273;28;20026;-78
2022/05/06 00:07:43;;;;;;;2.47;1.20;;;;;;;9.02;94.26;101515.53;5219199;28;20429;-78
2022/05/06 00:10:14;;;;;;;2.88;1.75;;;;;;;8.66;97.17;101515.16;5218449;28;20029;-78
2022/05/06 00:12:44;;;;;;;2.17;1.38;;;;;;;8.68;98.79;101516.00;5218827;28;20016;-79
2022/05/06 00:15:14;;;;;;;3.38;1.73;;;;;;;8.61;98.80;101517.84;5223266;28;20112;-79
2022/05/06 00:17:45;;;;;;;2.50;1.23;;;;;;;8.85;97.38;101527.06;5219779;28;20024;-78
2022/05/06 00:20:15;;;;;;;4.10;1.50;;;;;;;8.84;95.39;101520.13;5216846;28;20017;-78
2022/05/06 00:22:45;;;;;;;2.15;1.55;;;;;;;8.84;96.35;101520.13;5221929;28;20021;-77
2022/05/06 00:25:16;;;;;;;2.78;1.50;;;;;;;9.08;95.52;101512.81;5217687;28;20115;-77
2022/05/06 00:27:46;;;;;;;3.75;1.67;;;;;;;8.80;96.16;101521.94;5218640;28;20021;-79
2022/05/06 00:30:17;;;;;;;3.63;1.80;;;;;;;8.88;96.75;101519.22;5220450;28;20110;-77
2022/05/06 00:32:47;;;;;;;3.92;1.50;;;;;;;8.77;96.20;101529.81;5213884;28;20047;-78
2022/05/06 00:35:17;;;;;;;3.95;1.80;;;;;;;8.69;96.63;101526.41;5218222;28;20459;-78
2022/05/06 00:37:47;;;;;;;3.05;1.55;;;;;;;8.81;96.47;101526.25;5222198;28;20025;-78
2022/05/06 00:40:18;;;;;;;2.95;1.70;;;;;;;8.78;95.42;101521.09;5218129;28;20037;-78
2022/05/06 00:42:50;;;;;;;2.63;1.40;;;;;;;8.59;96.06;101529.16;5221948;28;20511;-77
2022/05/06 00:45:20;;;;;;;4.22;1.60;;;;;;;8.48;96.92;101534.50;5223163;28;20373;-77
2022/05/06 00:47:50;;;;;;;2.35;1.40;;;;;;;8.39;97.02;101525.94;5219884;28;20036;-79
2022/05/06 00:50:21;;;;;;;4.03;1.40;;;;;;;8.11;97.36;101534.88;5215674;28;20024;-78
2022/05/06 00:52:51;;;;;;;3.88;1.70;;;;;;;7.99;100.00;101535.88;5221075;28;20040;-78
2022/05/06 00:55:23;;;;;;;4.18;1.50;;;;;;;7.92;99.61;101539.44;5218463;28;20064;-78
2022/05/06 00:57:53;;;;;;;2.88;1.50;;;;;;;8.07;100.00;101533.19;5217584;28;20512;-78
2022/05/06 01:00:24;;;;;;;2.80;1.33;;;;;;;8.20;98.85;101533.06;5215479;28;20029;-77
2022/05/06 01:02:54;;;;;;;2.58;1.65;;;;;;;8.18;98.74;101539.19;5215945;28;20526;-78
2022/05/06 01:05:25;;;;;;;3.87;1.70;;;;;;;8.19;98.98;101539.16;5219071;28;20114;-78
2022/05/06 01:07:58;;;;;;;4.80;1.80;;;;;;;8.22;99.30;101531.31;5217883;28;20280;-77
2022/05/06 01:10:28;;;;;;;3.10;1.75;;;;;;;8.17;98.32;101537.41;5220343;28;20028;-78
2022/05/06 01:12:58;;;;;;;4.65;1.77;;;;;;;7.94;100.00;101537.66;5216856;28;20029;-79
2022/05/06 01:15:30;;;;;;;3.33;1.80;;;;;;;7.81;100.00;101536.03;5223693;28;20032;-78
2022/05/06 01:18:00;;;;;;;4.10;1.52;;;;;;;8.32;98.31;101532.06;5219725;28;20088;-78
2022/05/06 01:20:36;;;;;;;3.17;1.75;;;;;;;8.32;96.53;101529.47;5216569;28;20068;-77
2022/05/06 01:23:06;;;;;;;2.50;1.60;;;;;;;8.53;95.19;101537.91;5220344;28;20202;-76
2022/05/06 01:25:37;;;;;;;3.20;1.50;;;;;;;8.06;95.48;101553.16;5220067;28;20111;-78
2022/05/06 01:28:10;;;;;;;2.38;1.50;;;;;;;7.98;97.98;101547.16;5217665;28;20052;-78
2022/05/06 01:30:48;;;;;;;4.18;1.50;;;;;;;8.14;97.60;101551.34;5219346;28;20037;-78
2022/05/06 01:33:21;;;;;;;2.78;1.40;;;;;;;8.32;95.43;101539.88;5219089;28;20269;-78
2022/05/06 01:35:54;;;;;;;3.83;1.35;;;;;;;8.43;94.23;101551.94;5217257;28;20387;-78
2022/05/06 01:38:40;;;;;;;2.78;1.42;;;;;;;8.47;93.26;101544.94;5216525;28;20025;-79
2022/05/06 01:41:21;;;;;;;5.65;1.58;;;;;;;8.35;93.24;101551.16;5219996;28;20033;-78
2022/05/06 01:44:04;;;;;;;2.40;1.58;;;;;;;7.89;95.70;101552.44;5221586;28;20070;-78
2022/05/06 01:46:36;;;;;;;3.85;1.73;;;;;;;7.95;95.52;101559.34;5219420;28;20510;-78
2022/05/06 01:49:09;;;;;;;3.17;1.80;;;;;;;7.52;97.82;101553.63;5216638;28;20488;-77
2022/05/06 01:51:42;;;;;;;4.47;1.80;;;;;;;7.60;97.49;101562.25;5214668;28;20277;-75
2022/05/06 01:54:12;;;;;;;4.03;1.60;;;;;;;7.52;99.34;101564.03;5224391;28;20021;-78
2022/05/06 01:56:45;;;;;;;2.67;1.38;;;;;;;7.39;98.83;101557.19;5220464;28;20020;-78
2022/05/06 01:59:16;;;;;;;2.72;1.50;;;;;;;7.42;100.00;101570.19;5221920;28;20033;-78
2022/05/06 02:01:46;;;;;;;4.38;1.63;;;;;;;7.44;98.98;101555.44;5228789;28;20111;-76
2022/05/06 02:07:05;;;;;;;3.92;1.77;;;;;;;7.61;96.76;101561.38;5232564;28;20036;-75
2022/05/06 02:09:35;;;;;;;2.92;1.80;;;;;;;7.45;100.00;101564.97;5229685;28;20021;-75
2022/05/06 02:12:07;;;;;;;2.47;1.77;;;;;;;7.47;100.00;101565.81;5232727;28;20020;-74
2022/05/06 02:14:37;;;;;;;4.25;1.92;;;;;;;7.55;100.00;101564.00;5237104;28;20036;-75
2022/05/06 02:17:07;;;;;;;3.13;1.60;;;;;;;7.67;98.34;101553.50;5229842;28;20037;-76
2022/05/06 02:19:38;;;;;;;3.35;1.73;;;;;;;7.54;98.56;101564.88;5228606;28;20044;-75
2022/05/06 02:22:08;;;;;;;3.05;1.70;;;;;;;7.70;96.99;101558.69;5228289;28;20051;-75
2022/05/06 02:24:38;;;;;;;4.35;1.58;;;;;;;7.42;98.55;101556.31;5231880;28;20388;-75
2022/05/06 02:27:12;;;;;;;2.88;1.88;;;;;;;7.45;98.32;101557.16;5229795;28;20435;-75
2022/05/06 02:33:12;;;;;;;3.05;1.90;;;;;;;7.30;98.19;101561.59;5231540;28;20533;-75
2022/05/06 02:35:22;;;;;;;4.60;1.88;;;;;;;7.35;97.10;101557.25;5230902;28;20048;-76
2022/05/06 02:37:52;;;;;;;3.65;1.70;;;;;;;7.20;98.67;101559.06;5229433;28;20051;-76
2022/05/06 02:40:22;;;;;;;4.05;1.95;;;;;;;7.23;99.40;101559.91;5230685;28;20028;-76
2022/05/06 02:42:53;;;;;;;4.88;2.05;;;;;;;7.13;100.00;101558.22;5228163;28;20025;-75
2022/05/06 02:45:23;;;;;;;3.67;1.90;;;;;;;7.04;100.00;101563.50;5235802;28;20054;-74
2022/05/06 02:47:53;;;;;;;4.53;2.10;;;;;;;7.10;100.00;101557.41;5231784;28;20108;-75
2022/05/06 02:50:24;;;;;;;4.28;1.88;;;;;;;7.13;100.00;101557.38;5226785;28;20029;-75
2022/05/06 02:52:54;;;;;;;4.40;2.10;;;;;;;7.15;100.00;101553.03;5232152;28;20018;-76
2022/05/06 02:55:25;;;;;;;4.40;1.90;;;;;;;7.22;100.00;101559.91;5231666;28;20033;-76
2022/05/06 02:57:55;;;;;;;3.03;2.10;;;;;;;7.32;100.00;101554.66;5227969;28;20022;-74
2022/05/06 03:00:26;;;;;;;4.10;2.00;;;;;;;7.10;99.38;101557.41;5231407;28;20032;-74
2022/05/06 03:02:57;;;;;;;2.90;1.77;;;;;;;6.99;100.00;101556.59;5228575;28;20291;-78
2022/05/06 03:05:27;;;;;;;4.50;1.90;;;;;;;7.06;100.00;101553.06;5230480;28;20025;-74
2022/05/06 03:07:57;;;;;;;2.70;1.73;;;;;;;7.06;99.74;101550.47;5228947;28;20414;-77
2022/05/06 03:10:28;;;;;;;4.90;2.00;;;;;;;6.97;99.42;101551.38;5231169;28;20021;-75
2022/05/06 03:12:58;;;;;;;4.60;2.10;;;;;;;6.93;100.00;101551.44;5227875;28;20028;-78
2022/05/06 03:15:28;;;;;;;3.75;2.17;;;;;;;6.87;100.00;101546.25;5235472;28;20208;-76
2022/05/06 03:18:00;;;;;;;4.60;2.17;;;;;;;7.08;100.00;101544.41;5229856;28;20037;-77
2022/05/06 03:20:31;;;;;;;5.65;2.67;;;;;;;6.94;100.00;101542.78;5222324;28;20080;-76
2022/05/06 03:23:01;;;;;;;3.13;2.17;;;;;;;7.13;100.00;101536.59;5229160;28;20029;-76
2022/05/06 03:25:32;;;;;;;3.58;2.33;;;;;;;7.05;100.00;101547.03;5230327;28;20087;-77
2022/05/06 03:28:07;;;;;;;3.42;2.22;;;;;;;7.16;100.00;101539.16;5226217;28;20511;-76
2022/05/06 03:30:41;;;;;;;5.32;2.40;;;;;;;7.39;97.20;101541.59;5229615;28;20080;-77
2022/05/06 03:33:15;;;;;;;5.15;2.40;;;;;;;7.44;96.60;101546.75;5226825;28;20033;-77
2022/05/06 03:35:46;;;;;;;3.30;2.23;;;;;;;7.42;96.83;101552.00;5228441;28;20033;-76
2022/05/06 03:38:16;;;;;;;5.22;2.42;;;;;;;7.42;96.55;101549.38;5227976;28;20091;-74
2022/05/06 03:40:46;;;;;;;5.20;2.50;;;;;;;7.36;95.00;101551.16;5228810;28;20055;-74
2022/05/06 03:43:16;;;;;;;3.40;2.20;;;;;;;7.22;97.59;101548.63;5227565;28;20336;-76
2022/05/06 03:45:47;;;;;;;3.65;2.28;;;;;;;7.05;98.05;101548.75;5233429;28;20056;-75
2022/05/06 03:48:17;;;;;;;4.18;2.00;;;;;;;6.81;99.65;101554.09;5229103;28;20044;-76
2022/05/06 03:53:36;;;;;;;5.18;2.15;;;;;;;6.51;100.00;101555.09;5229794;28;20039;-77
2022/05/06 03:56:07;;;;;;;4.05;1.92;;;;;;;6.35;100.00;101568.09;5226884;28;20021;-77
2022/05/06 03:58:37;;;;;;;3.17;1.55;;;;;;;6.44;100.00;101557.72;5230071;28;20028;-75
2022/05/06 04:01:07;;;;;;;3.88;1.90;;;;;;;6.46;100.00;101567.19;5225388;28;20037;-75
2022/05/06 04:03:41;;;;;;;2.85;1.92;;;;;;;6.69;100.00;101554.13;5229340;28;20036;-75
2022/05/06 04:06:13;;;;;;;5.13;2.25;;;;;;;7.08;100.00;101559.16;5226279;28;20053;-75
2022/05/06 04:08:44;;;;;;;3.47;2.10;;;;;;;7.25;97.27;101565.97;5227501;28;20443;-76
2022/05/06 04:11:14;;;;;;;2.95;2.13;;;;;;;7.28;98.08;101568.53;5225270;28;20025;-76
2022/05/06 04:13:45;;;;;;;3.13;2.13;;;;;;;7.35;99.45;101565.88;5225989;28;20021;-77
2022/05/06 04:16:15;;;;;;;3.42;2.15;;;;;;;7.50;95.88;101576.19;5227835;28;20022;-75
2022/05/06 04:18:45;;;;;;;3.95;2.08;;;;;;;7.20;97.54;101575.53;5228242;28;20042;-74
2022/05/06 04:24:05;;;;;;;3.67;2.08;;;;;;;6.85;100.00;101568.78;5226256;28;20040;-74
2022/05/06 04:26:35;;;;;;;2.78;2.00;;;;;;;6.97;100.00;101579.13;5226027;28;20021;-76
2022/05/06 04:29:05;;;;;;;3.45;1.90;;;;;;;6.88;100.00;101579.16;5229534;28;20025;-74
2022/05/06 04:31:36;;;;;;;3.60;1.87;;;;;;;6.93;100.00;101583.47;5227945;28;20022;-73
2022/05/06 04:34:07;;;;;;;3.25;2.20;;;;;;;6.97;100.00;101585.16;5227571;28;20271;-74
2022/05/06 04:36:39;;;;;;;5.50;2.20;;;;;;;7.20;100.00;101583.34;5226093;28;20022;-78
2022/05/06 04:39:09;;;;;;;4.25;2.13;;;;;;;7.52;99.48;101584.84;5226761;28;20047;-77
2022/05/06 04:41:41;;;;;;;3.60;2.00;;;;;;;8.33;96.80;101583.28;5221339;28;20026;-75
2022/05/06 04:44:11;;;;;;;3.13;2.00;;;;;;;8.85;92.50;101585.28;5236132;28;20029;-77
2022/05/06 04:46:41;;;;;;;4.43;2.10;;;;;;;9.81;89.74;101576.91;5237430;28;20116;-78
2022/05/06 04:49:11;;;;;;;2.80;1.55;;;;;;;9.70;87.33;101585.78;5235418;28;20031;-76
2022/05/06 04:51:42;;;;;;;3.22;1.60;;;;;;;10.68;83.08;101584.94;5233494;28;20046;-78
2022/05/06 04:54:13;;;;;;;3.10;1.60;;;;;;;11.93;78.63;101579.44;5236219;28;20013;-78
2022/05/06 04:56:43;;;;;;;2.65;1.30;;;;;;;14.21;73.97;101568.19;5229926;28;20053;-75
2022/05/06 04:59:13;;;;;;;5.33;1.70;;;;;;;15.92;63.63;101559.81;5230376;28;20024;-75
2022/05/06 05:01:43;;;;;;;3.22;1.45;;;;;;;15.71;66.92;101563.31;5229862;28;20271;-78
2022/05/06 05:04:14;;;;;;;4.30;1.30;;;;;;;15.85;65.12;101571.53;5229564;28;20187;-77
2022/05/06 05:06:45;;;;;;;2.53;1.50;;;;;;;16.69;62.62;101567.03;5225166;28;20033;-78
2022/05/06 05:09:15;;;;;;;2.63;1.50;;;;;;;15.59;64.40;101576.13;5222664;28;20311;-75
2022/05/06 05:11:45;;;;;;;2.17;1.47;;;;;;;15.27;67.78;101572.13;5223021;28;20483;-75
2022/05/06 05:14:15;;;;;;;4.55;1.48;;;;;;;15.99;65.38;101577.09;5230788;28;20306;-76
2022/05/06 05:16:48;;;;;;;2.22;1.30;;;;;;;16.83;62.78;101571.59;5223981;28;20044;-78
2022/05/06 05:19:18;;;;;;;3.78;1.60;;;;;;;17.32;62.67;101567.56;5224545;28;20068;-76
2022/05/06 05:21:49;;;;;;;2.97;1.27;;;;;;;16.53;65.54;101569.47;5221319;28;20512;-76
2022/05/06 05:24:19;;;;;;;3.50;1.50;;;;;;;17.78;61.92;101567.06;5226536;28;20334;-76
2022/05/06 05:26:50;;;;;;;2.57;1.30;;;;;;;19.62;59.49;101554.50;5225873;28;20039;-76
2022/05/06 05:29:20;;;;;;;3.80;1.38;;;;;;;21.79;53.98;101546.19;5228706;28;20275;-77
2022/05/06 05:31:52;;;;;;;2.88;1.30;;;;;;;23.40;51.73;101549.88;5229285;28;20655;-78
2022/05/06 05:34:22;;;;;;;2.72;1.45;;;;;;;23.12;50.28;101548.34;5230215;28;20025;-75
2022/05/06 05:36:52;;;;;;;3.33;1.50;;;;;;;22.86;51.42;101559.97;5232232;28;20021;-77
2022/05/06 05:39:23;;;;;;;3.17;1.50;;;;;;;21.45;54.95;101565.28;5230716;28;20024;-78
2022/05/06 05:41:53;;;;;;;2.73;1.50;;;;;;;22.45;53.53;101557.66;5226651;28;20521;-77
2022/05/06 05:50:02;;;;;;;2.10;1.27;;;;;;;22.42;53.48;101563.19;5228613;28;20476;-75
2022/05/06 05:52:33;;;;;;;2.33;1.30;;;;;;;22.64;53.34;101558.94;5229862;28;20052;-75
2022/05/06 05:55:04;;;;;;;4.75;1.80;;;;;;;23.89;51.59;101564.84;5225747;28;20029;-76
2022/05/06 05:57:34;;;;;;;4.28;1.90;;;;;;;22.44;52.54;101562.09;5231222;28;20029;-76
2022/05/06 06:00:06;;;;;;;2.83;1.57;;;;;;;20.71;57.40;101575.28;5227715;28;20021;-75
2022/05/06 06:02:36;;;;;;;2.92;1.70;;;;;;;20.01;60.45;101576.94;5230761;28;20033;-77
2022/05/06 06:05:07;;;;;;;4.63;1.90;;;;;;;20.02;61.18;101577.81;5235693;28;20052;-77
2022/05/06 06:07:37;;;;;;;4.30;2.00;;;;;;;19.04;63.44;101579.81;5230409;28;20036;-76
2022/05/06 06:10:08;;;;;;;4.22;2.00;;;;;;;19.51;61.42;101581.63;5228080;28;20020;-77
2022/05/06 06:12:39;;;;;;;4.85;2.33;;;;;;;19.27;61.76;101580.31;5225667;28;20284;-75
2022/05/06 06:15:09;;;;;;;6.88;2.72;;;;;;;17.04;67.03;101589.13;5232188;28;20036;-76
2022/05/06 06:17:39;;;;;;;4.75;2.58;;;;;;;18.76;63.33;101584.91;5225707;28;20033;-76
2022/05/06 06:20:10;;;;;;;5.43;2.67;;;;;;;19.48;60.06;101581.75;5223437;28;20089;-77
2022/05/06 06:22:40;;;;;;;8.98;3.05;;;;;;;18.74;60.95;101590.28;5229157;28;20287;-76
2022/05/06 06:25:11;;;;;;;5.53;2.63;;;;;;;19.07;62.12;101587.63;5229824;28;20029;-76
2022/05/06 06:27:43;;;;;;;5.68;2.70;;;;;;;19.89;61.60;101580.28;5231556;28;20267;-76
2022/05/06 06:30:14;;;;;;;6.75;2.78;;;;;;;18.40;64.00;101588.63;5228676;28;20045;-76
2022/05/06 06:32:44;;;;;;;5.93;3.03;;;;;;;19.45;60.59;101591.72;5229773;28;20036;-76
2022/05/06 06:35:14;;;;;;;15.37;3.13;;;;;;;17.76;66.69;101587.44;5229538;28;20044;-77
2022/05/06 06:37:44;;;;;;;6.77;2.83;;;;;;;18.17;65.65;101587.09;5227453;28;20271;-78
2022/05/06 06:40:15;;;;;;;4.63;3.20;;;;;;;18.81;64.31;101591.69;5228237;28;20275;-77
2022/05/06 06:42:46;;;;;;;7.45;2.67;;;;;;;18.59;64.38;101592.03;5230752;28;20037;-78
2022/05/06 06:45:17;;;;;;;6.85;2.80;;;;;;;21.12;57.42;101586.03;5238430;28;20104;-76
2022/05/06 06:47:47;;;;;;;6.28;3.63;;;;;;;19.89;58.07;101588.25;5238800;28;20491;-77
2022/05/06 06:50:17;;;;;;;5.55;3.00;;;;;;;22.13;56.38;101589.13;5228261;28;20049;-76
2022/05/06 06:52:48;;;;;;;6.73;2.93;;;;;;;22.33;54.96;101591.28;5228927;28;20012;-76
2022/05/06 06:55:19;;;;;;;7.27;3.23;;;;;;;24.49;51.64;101581.56;5228872;28;20041;-76
2022/05/06 06:57:50;;;;;;;8.60;3.47;;;;;;;24.17;50.64;101587.66;5229328;28;20032;-76
2022/05/06 07:00:20;;;;;;;6.90;2.75;;;;;;;22.53;53.31;101592.59;5229623;28;20273;-77
2022/05/06 07:02:51;;;;;;;5.37;2.97;;;;;;;25.25;50.46;101575.47;5227092;28;20399;-77
2022/05/06 07:05:22;;;;;;;6.18;3.20;;;;;;;22.23;54.55;101597.34;5225347;28;20310;-78
2022/05/06 07:13:30;;;;;;;5.78;3.20;;;;;;;24.65;53.34;101584.78;5232415;28;20039;-76
2022/05/06 07:16:00;;;;;;;10.35;3.45;;;;;;;23.27;54.07;101597.94;5226821;28;20128;-78
2022/05/06 07:18:31;;;;;;;7.68;3.47;;;;;;;23.62;52.43;101595.38;5229383;28;20021;-77
2022/05/06 07:21:01;;;;;;;6.87;3.60;;;;;;;23.35;54.00;101592.91;5233486;28;20028;-78
2022/05/06 07:23:31;;;;;;;8.00;3.47;;;;;;;25.03;49.57;101587.97;5230737;28;20291;-77
2022/05/06 07:26:01;;;;;;;7.90;3.97;;;;;;;22.91;55.30;101592.53;5227548;28;20056;-76
2022/05/06 07:28:32;;;;;;;5.00;3.00;;;;;;;25.42;50.17;101582.13;5231337;28;20025;-77
2022/05/06 07:31:02;;;;;;;7.57;3.80;;;;;;;22.63;54.77;101593.69;5227537;28;20510;-77
2022/05/06 07:33:32;;;;;;;7.93;3.30;;;;;;;27.34;47.44;101588.72;5231285;28;20361;-78
2022/05/06 07:36:03;;;;;;;9.50;3.33;;;;;;;26.71;47.99;101584.56;5225355;28;20036;-77
2022/05/06 07:38:33;;;;;;;4.63;3.13;;;;;;;29.95;43.55;101575.16;5214132;28;20116;-77
2022/05/06 07:41:04;;;;;;;8.20;3.50;;;;;;;29.62;43.34;101580.38;5220963;28;20082;-75
2022/05/06 07:43:34;;;;;;;7.60;3.83;;;;;;;24.89;49.53;101590.91;5214905;28;20288;-74
2022/05/06 07:46:05;;;;;;;7.70;3.57;;;;;;;28.72;45.13;101578.47;5215069;28;20029;-75
2022/05/06 07:48:36;;;;;;;7.45;3.55;;;;;;;28.38;44.66;101579.97;5223021;28;20282;-78
2022/05/06 07:51:06;;;;;;;4.93;3.58;;;;;;;25.74;47.13;101588.41;5228483;28;20040;-78
2022/05/06 07:53:37;;;;;;;7.38;3.38;;;;;;;27.79;45.35;101584.59;5227593;28;20017;-78
2022/05/06 07:56:08;;;;;;;5.32;3.00;;;;;;;24.37;50.28;101592.38;5225817;28;20060;-78
2022/05/06 07:58:38;;;;;;;9.02;3.50;;;;;;;23.80;51.83;101588.69;5221734;28;20022;-76
2022/05/06 08:01:11;;;;;;;5.13;3.07;;;;;;;26.73;46.95;101577.25;5222758;28;20021;-77
2022/05/06 08:06:30;;;;;;;6.22;3.20;;;;;;;26.45;48.26;101584.09;5217734;28;20387;-75
2022/05/06 08:09:01;;;;;;;7.03;3.13;;;;;;;28.14;44.49;101575.97;5217908;28;20025;-76
2022/05/06 08:11:32;;;;;;;6.57;2.73;;;;;;;31.15;42.35;101568.84;5214385;28;20447;-78
2022/05/06 08:14:02;;;;;;;8.43;3.47;;;;;;;26.04;46.94;101576.00;5222141;28;20422;-77
2022/05/06 08:16:32;;;;;;;6.50;3.20;;;;;;;28.31;45.77;101565.38;5215896;28;20041;-75
2022/05/06 08:19:03;;;;;;;5.22;2.90;;;;;;;26.22;48.57;101574.50;5214412;28;20025;-75
2022/05/06 08:21:34;;;;;;;7.45;2.50;;;;;;;26.53;49.48;101573.59;5221484;28;20390;-77
2022/05/06 08:24:04;;;;;;;5.77;2.90;;;;;;;28.11;47.24;101571.72;5219068;28;20036;-76
2022/05/06 08:26:35;;;;;;;4.22;2.78;;;;;;;26.92;46.80;101567.47;5216183;28;20033;-77
2022/05/06 08:29:05;;;;;;;5.63;2.70;;;;;;;31.14;42.20;101567.16;5218135;28;20196;-75
2022/05/06 08:31:37;;;;;;;5.77;2.90;;;;;;;30.60;41.74;101566.63;5216093;28;20037;-77
2022/05/06 08:34:09;;;;;;;5.00;2.85;;;;;;;30.36;41.51;101562.88;5227657;28;20274;-77
2022/05/06 08:36:42;;;;;;;6.22;3.60;;;;;;;28.75;43.60;101565.53;5225353;28;20031;-76
2022/05/06 08:39:13;;;;;;;4.80;3.15;;;;;;;29.11;44.01;101563.91;5226769;28;20036;-76
2022/05/06 08:41:44;;;;;;;6.63;3.10;;;;;;;30.93;43.77;101558.59;5225383;28;20040;-78
2022/05/06 08:52:43;;;;;;;5.07;2.92;;;;;;;26.76;47.40;101565.25;5219926;28;20036;-76
2022/05/06 08:55:13;;;;;;;7.72;3.15;;;;;;;26.75;47.14;101566.22;5220658;28;20474;-78
2022/05/06 08:57:45;;;;;;;5.53;2.83;;;;;;;29.48;43.16;101551.25;5225842;28;20041;-77
2022/05/06 09:00:15;;;;;;;5.10;3.65;;;;;;;28.93;43.28;101562.97;5217692;28;20374;-75
2022/05/06 09:02:46;;;;;;;7.60;4.50;;;;;;;27.26;45.08;101561.69;5219602;28;20076;-76
2022/05/06 09:05:18;;;;;;;5.87;3.70;;;;;;;27.62;47.06;101558.34;5226072;28;20272;-76
2022/05/06 09:08:02;;;;;;;6.00;3.70;;;;;;;27.13;47.39;101558.38;5228546;28;20033;-76
2022/05/06 09:10:33;;;;;;;9.00;5.13;;;;;;;25.60;48.26;101564.56;5231652;28;20453;-76
2022/05/06 09:13:03;;;;;;;7.83;4.60;;;;;;;24.12;50.45;101577.34;5228711;28;20053;-79
2022/05/06 09:18:23;;;;;;;9.23;4.93;;;;;;;24.29;50.84;101571.56;5235004;28;20334;-76
2022/05/06 09:21:09;;;;;;;9.77;4.82;;;;;;;23.22;51.87;101565.38;5232975;28;20120;-75
2022/05/06 09:23:39;;;;;;;11.40;5.63;;;;;;;23.68;51.73;101571.75;5232367;28;20029;-75
2022/05/06 09:26:16;;;;;;;15.70;5.70;;;;;;;22.60;52.80;101570.75;5231366;28;20294;-75
2022/05/06 09:28:47;;;;;;;8.18;5.35;;;;;;;23.84;51.68;101566.16;5228675;28;20057;-76
2022/05/06 09:31:25;;;;;;;9.83;5.57;;;;;;;22.44;54.72;101569.28;5232169;28;20086;-75
2022/05/06 09:34:09;;;;;;;9.52;5.13;;;;;;;23.53;52.18;101564.88;5232033;28;20296;-76
2022/05/06 09:36:40;;;;;;;9.30;5.28;;;;;;;22.95;51.94;101574.47;5231678;28;20020;-77
2022/05/06 09:39:10;;;;;;;9.93;5.55;;;;;;;23.32;51.76;101560.22;5230027;28;20029;-77
2022/05/06 09:41:41;;;;;;;9.88;5.20;;;;;;;23.03;53.75;101564.97;5232173;28;20090;-75
2022/05/06 09:44:12;;;;;;;10.95;5.03;;;;;;;23.07;52.38;101569.16;5234744;28;20440;-76
2022/05/06 09:46:42;;;;;;;11.25;5.53;;;;;;;22.91;52.61;101567.66;5231269;28;20016;-76
2022/05/06 09:49:14;;;;;;;8.13;5.32;;;;;;;22.54;53.06;101565.84;5229872;28;20092;-77
2022/05/06 09:51:47;;;;;;;8.82;4.93;;;;;;;22.81;53.56;101561.28;5234665;28;20025;-76
2022/05/06 09:54:31;;;;;;;7.72;4.80;;;;;;;22.93;51.71;101558.59;5231302;28;20017;-76
2022/05/06 09:57:06;;;;;;;7.78;5.00;;;;;;;23.46;54.29;101557.41;5232169;28;20033;-75
2022/05/06 09:59:37;;;;;;;9.43;5.20;;;;;;;23.35;53.09;101552.88;5230310;28;20375;-77
2022/05/06 10:02:08;;;;;;;7.60;4.93;;;;;;;23.45;53.80;101547.72;5230798;28;20024;-75
2022/05/06 10:04:39;;;;;;;8.38;4.88;;;;;;;23.15;52.61;101550.78;5229671;28;20030;-75
2022/05/06 10:07:14;;;;;;;10.68;5.20;;;;;;;22.82;52.65;101550.50;5231376;28;20029;-75
2022/05/06 10:09:52;;;;;;;7.47;4.97;;;;;;;22.23;53.79;101542.25;5230061;28;20112;-76
2022/05/06 10:12:25;;;;;;;9.50;5.18;;;;;;;21.75;55.21;101542.88;5228900;28;20065;-75
2022/05/06 10:14:56;;;;;;;8.68;5.05;;;;;;;22.35;54.27;101538.75;5236668;28;20022;-76
2022/05/06 10:17:46;;;;;;;7.78;5.03;;;;;;;22.09;54.03;101536.16;5235029;28;20472;-76
2022/05/06 10:20:44;;;;;;;6.60;4.75;;;;;;;22.04;54.33;101535.59;5231007;28;20058;-76
2022/05/06 10:23:19;;;;;;;10.90;5.10;;;;;;;20.95;54.91;101530.41;5229467;28;20055;-76
2022/05/06 10:25:52;;;;;;;7.35;4.80;;;;;;;21.21;54.80;101534.94;5229582;28;20017;-76
2022/05/06 10:34:14;;;;;;;12.05;5.88;;;;;;;19.98;58.25;101533.78;5231103;28;20036;-75
2022/05/06 10:36:53;;;;;;;11.05;6.15;;;;;;;19.98;57.52;101529.31;5228355;28;20116;-76
2022/05/06 10:39:33;;;;;;;8.75;5.40;;;;;;;20.96;54.99;101542.75;5227315;28;20114;-75
2022/05/06 10:42:06;;;;;;;8.48;5.00;;;;;;;21.68;54.21;101527.41;5232354;28;20491;-76
2022/05/06 10:44:43;;;;;;;12.45;6.00;;;;;;;21.95;53.71;101525.56;5234223;28;20029;-76
2022/05/06 10:47:13;;;;;;;10.45;6.40;;;;;;;21.54;55.00;101536.28;5231186;28;20029;-74
2022/05/06 10:49:43;;;;;;;11.20;7.22;;;;;;;21.43;55.68;101525.47;5230509;28;20032;-75
2022/05/06 10:52:13;;;;;;;8.98;7.05;;;;;;;21.50;56.77;101529.44;5234188;28;20041;-76
2022/05/06 10:54:49;;;;;;;12.10;6.60;;;;;;;21.51;56.83;101530.28;5230430;28;20025;-74
2022/05/06 10:57:23;;;;;;;10.63;6.90;;;;;;;21.29;56.98;101529.97;5229721;28;20033;-74
2022/05/06 11:00:02;;;;;;;9.57;5.78;;;;;;;21.25;57.35;101520.50;5230541;28;20320;-75
2022/05/06 11:02:35;;;;;;;8.48;4.18;;;;;;;21.18;57.79;101517.38;5227486;28;20029;-75
2022/05/06 11:05:07;;;;;;;4.88;3.50;;;;;;;21.65;56.00;101519.63;5229443;28;20115;-75
2022/05/06 11:07:40;;;;;;;6.63;3.85;;;;;;;21.32;54.62;101519.13;5227318;28;20025;-75
2022/05/06 11:10:11;;;;;;;6.00;3.40;;;;;;;21.80;54.16;101522.13;5229539;28;20031;-76
2022/05/06 11:12:49;;;;;;;5.50;3.65;;;;;;;20.58;54.78;101515.03;5228421;28;20575;-75
2022/05/06 11:15:22;;;;;;;6.72;3.65;;;;;;;21.12;56.77;101516.91;5234486;28;20029;-75
2022/05/06 11:17:55;;;;;;;7.75;3.70;;;;;;;20.98;54.99;101514.28;5230831;28;20021;-77
2022/05/06 11:20:32;;;;;;;5.72;3.25;;;;;;;21.02;56.96;101510.47;5229437;28;20064;-75
2022/05/06 11:23:10;;;;;;;6.18;3.15;;;;;;;21.18;57.43;101511.19;5230569;28;20020;-74
2022/05/06 11:25:44;;;;;;;6.57;3.22;;;;;;;21.57;57.07;101511.28;5226053;28;20022;-76
2022/05/06 11:28:18;;;;;;;5.60;3.35;;;;;;;21.55;56.38;101502.53;5228048;28;20033;-77
2022/05/06 11:30:50;;;;;;;6.28;3.08;;;;;;;21.58;54.15;101502.34;5229244;28;20037;-74
2022/05/06 11:33:24;;;;;;;6.55;2.83;;;;;;;21.79;54.28;101506.25;5228086;28;20162;-75
2022/05/06 11:36:04;;;;;;;3.83;2.20;;;;;;;21.24;53.54;101495.69;5230634;28;20398;-77
2022/05/06 11:38:36;;;;;;;5.55;2.40;;;;;;;21.81;53.39;101493.69;5229785;28;20041;-76
2022/05/06 11:41:11;;;;;;;5.82;2.42;;;;;;;21.79;54.17;101496.47;5228236;28;20017;-77
2022/05/06 11:43:43;;;;;;;6.82;3.05;;;;;;;21.70;53.30;101486.44;5229847;28;20055;-75
2022/05/06 11:49:04;;;;;;;6.80;2.97;;;;;;;21.43;53.53;101487.38;5226745;28;20056;-77
2022/05/06 11:51:38;;;;;;;6.72;2.85;;;;;;;21.66;52.93;101489.38;5233380;28;20033;-75
2022/05/06 11:54:09;;;;;;;5.22;2.90;;;;;;;21.80;52.96;101484.00;5228948;28;20029;-77
2022/05/06 11:56:41;;;;;;;5.75;2.80;;;;;;;21.05;53.83;101489.03;5231276;28;20096;-75
2022/05/06 11:59:12;;;;;;;7.38;3.05;;;;;;;20.84;54.22;101477.06;5232852;28;20434;-74
2022/05/06 12:01:42;;;;;;;4.88;2.78;;;;;;;20.96;54.06;101484.28;5227326;28;20021;-75
2022/05/06 12:04:12;;;;;;;6.97;2.80;;;;;;;20.86;55.84;101477.84;5231588;28;20091;-77
2022/05/06 12:06:49;;;;;;;4.80;2.37;;;;;;;21.20;56.47;101475.56;5228838;28;20281;-78
2022/05/06 12:09:24;;;;;;;5.45;2.47;;;;;;;21.71;54.79;101468.66;5226097;28;20283;-78
2022/05/06 12:12:04;;;;;;;5.30;2.70;;;;;;;21.48;54.19;101478.16;5238537;28;20033;-77
2022/05/06 12:14:35;;;;;;;6.38;2.75;;;;;;;21.51;53.98;101477.06;5233629;28;20075;-75
2022/05/06 12:17:11;;;;;;;4.90;2.67;;;;;;;21.37;55.81;101466.50;5224996;28;20049;-75
2022/05/06 12:19:43;;;;;;;6.63;2.40;;;;;;;21.61;57.25;101464.88;5229158;28;20021;-78
2022/05/06 12:22:24;;;;;;;5.68;2.50;;;;;;;21.37;53.09;101464.69;5232733;28;20152;-78
2022/05/06 12:24:56;;;;;;;5.85;2.58;;;;;;;21.40;54.06;101468.97;5232992;28;20029;-74
2022/05/06 12:27:37;;;;;;;5.05;2.20;;;;;;;21.11;56.59;101467.34;5235970;28;20835;-76
2022/05/06 12:30:16;;;;;;;4.97;2.20;;;;;;;21.38;56.11;101466.38;5228153;28;20067;-76
2022/05/06 12:33:02;;;;;;;4.18;1.73;;;;;;;21.44;56.85;101463.31;5229456;28;20052;-74